Time;durP1;ratioP1;P1;durP2;ratioP2;P2;SDS_P1;SDS_P2;PMS_P1;PMS_P2;Temp;Humidity;BMP_temperature;BMP_pressure;BME280_temperature;BME280_humidity;BME280_pressure;Samples;Min_cycle;Max_cycle;Signal;HPM_P1;HPM_P2
2023/03/04 00:03:41;;;;;;;5.95;2.50;;;;;;;-1.59;80.32;98564.50;10593899;28;20054;-78
2023/03/04 00:08:43;;;;;;;4.18;2.40;;;;;;;-1.72;80.79;98548.78;10603992;28;20489;-78
2023/03/04 00:13:45;;;;;;;5.70;2.22;;;;;;;-1.58;82.12;98539.22;10584325;28;20039;-77
2023/03/04 00:18:47;;;;;;;5.57;2.83;;;;;;;-1.62;81.93;98532.72;10596036;28;20051;-78
2023/03/04 00:23:50;;;;;;;5.25;2.90;;;;;;;-1.68;82.12;98525.69;10585500;28;20044;-78
2023/03/04 00:28:52;;;;;;;5.50;3.03;;;;;;;-1.77;81.93;98513.75;10551849;28;20043;-78
2023/03/04 00:33:56;;;;;;;6.95;3.40;;;;;;;-1.45;82.84;98500.34;10568396;28;20074;-77
2023/03/04 00:38:58;;;;;;;10.77;5.50;;;;;;;-1.57;81.86;98495.13;10616479;28;20039;-78
2023/03/04 00:44:00;;;;;;;12.13;5.38;;;;;;;-1.82;81.88;98484.13;10602168;28;20051;-77
2023/03/04 00:49:02;;;;;;;9.32;5.13;;;;;;;-1.93;82.42;98477.03;10591726;28;20114;-78
2023/03/04 00:54:04;;;;;;;12.40;4.88;;;;;;;-2.07;82.84;98467.75;10600923;28;20039;-77
2023/03/04 00:59:07;;;;;;;11.50;5.07;;;;;;;-2.06;83.17;98461.31;10605377;28;20036;-77
2023/03/04 01:04:09;;;;;;;12.50;5.03;;;;;;;-1.98;84.17;98453.59;10586410;28;20496;-78
2023/03/04 01:09:11;;;;;;;8.15;4.38;;;;;;;-1.85;84.02;98439.75;10569198;28;20496;-77
2023/03/04 01:14:13;;;;;;;8.82;4.57;;;;;;;-1.82;83.97;98438.44;10564398;28;20043;-77
2023/03/04 01:19:16;;;;;;;8.70;4.13;;;;;;;-1.95;84.15;98431.59;10564545;28;20040;-78
2023/03/04 01:24:18;;;;;;;9.02;3.92;;;;;;;-1.94;83.99;98429.72;10566113;28;20040;-78
2023/03/04 01:29:20;;;;;;;7.93;3.40;;;;;;;-1.93;84.58;98423.28;10564886;28;20040;-78
2023/03/04 01:34:22;;;;;;;8.43;3.60;;;;;;;-1.97;84.83;98416.78;10532238;28;20036;-78
2023/03/04 01:39:25;;;;;;;6.63;3.03;;;;;;;-1.97;85.20;98408.72;10564186;28;20063;-77
2023/03/04 01:44:27;;;;;;;5.07;2.95;;;;;;;-1.72;85.06;98403.59;10571274;28;20062;-77
2023/03/04 01:49:30;;;;;;;6.28;2.85;;;;;;;-1.77;85.20;98397.34;10532231;28;20035;-78
2023/03/04 01:54:33;;;;;;;4.10;2.63;;;;;;;-1.95;85.16;98385.09;10570238;28;20047;-76
2023/03/04 01:59:35;;;;;;;7.05;3.10;;;;;;;-2.02;85.72;98384.50;10568324;28;20040;-79
2023/03/04 02:04:38;;;;;;;4.70;2.78;;;;;;;-2.10;85.97;98384.94;10553036;28;20055;-79
2023/03/04 02:09:40;;;;;;;4.72;3.17;;;;;;;-2.17;86.26;98377.91;10555078;28;20433;-79
2023/03/04 02:14:42;;;;;;;6.15;3.30;;;;;;;-2.23;86.48;98376.25;10545733;28;20038;-78
2023/03/04 02:19:52;;;;;;;5.18;2.53;;;;;;;-2.13;87.46;98372.84;10576141;28;20040;-79
2023/03/04 02:25:03;;;;;;;8.13;4.07;;;;;;;-2.25;87.40;98369.50;10572318;28;20059;-78
2023/03/04 02:30:06;;;;;;;6.18;2.92;;;;;;;-2.36;87.58;98365.91;10523050;28;20408;-79
2023/03/04 02:35:15;;;;;;;7.63;2.78;;;;;;;-2.34;87.55;98361.09;10555277;28;20055;-78
2023/03/04 02:40:24;;;;;;;4.68;2.38;;;;;;;-2.26;88.56;98357.94;10552007;28;20044;-79
2023/03/04 02:45:47;;;;;;;4.45;1.95;;;;;;;-2.30;88.46;98348.75;10555002;28;20055;-79
2023/03/04 02:50:51;;;;;;;5.05;2.20;;;;;;;-2.26;88.77;98341.00;10559987;28;20035;-79
2023/03/04 02:56:23;;;;;;;5.03;2.25;;;;;;;-2.23;88.94;98329.78;10554121;28;20047;-78
2023/03/04 03:01:27;;;;;;;4.15;2.33;;;;;;;-2.29;88.57;98328.91;10559553;28;20476;-78
2023/03/04 03:06:30;;;;;;;4.25;1.60;;;;;;;-2.45;88.67;98324.44;10571633;28;20054;-79
2023/03/04 03:11:33;;;;;;;3.88;2.00;;;;;;;-2.46;88.95;98320.13;10608038;28;20071;-78
2023/03/04 03:16:35;;;;;;;2.30;1.63;;;;;;;-2.52;89.49;98321.97;10581779;28;20500;-78
2023/03/04 03:21:41;;;;;;;3.08;2.15;;;;;;;-2.62;89.52;98310.31;10585297;28;20606;-77
2023/03/04 03:26:44;;;;;;;4.35;2.30;;;;;;;-2.45;90.39;98308.31;10589645;28;20039;-78
2023/03/04 03:31:46;;;;;;;3.00;1.90;;;;;;;-2.59;90.68;98299.09;10610965;28;20043;-78
2023/03/04 03:36:54;;;;;;;2.20;1.55;;;;;;;-2.70;90.95;98297.34;10592869;28;20098;-79
2023/03/04 03:41:56;;;;;;;3.20;1.95;;;;;;;-2.65;91.29;98292.84;10604893;27;20496;-78
2023/03/04 03:46:58;;;;;;;3.15;2.05;;;;;;;-2.66;91.50;98296.59;10609271;28;20043;-78
2023/03/04 03:52:01;;;;;;;2.67;1.23;;;;;;;-2.78;91.55;98275.28;10579996;28;20376;-78
2023/03/04 03:57:03;;;;;;;4.00;1.73;;;;;;;-2.77;91.81;98274.22;10599095;27;20436;-77
2023/03/04 04:02:05;;;;;;;2.88;1.27;;;;;;;-2.74;92.04;98270.22;10608006;28;20436;-78
2023/03/04 04:07:07;;;;;;;3.80;1.88;;;;;;;-2.76;92.43;98265.09;10588364;28;20059;-78
2023/03/04 04:12:15;;;;;;;2.70;1.65;;;;;;;-2.71;92.40;98271.56;10603070;28;20046;-78
2023/03/04 04:17:18;;;;;;;2.28;1.15;;;;;;;-2.74;92.95;98278.25;10616111;27;20070;-79
2023/03/04 04:22:20;;;;;;;1.65;1.30;;;;;;;-2.76;92.83;98258.91;10595721;27;20055;-78
2023/03/04 04:27:22;;;;;;;1.58;1.10;;;;;;;-2.79;93.22;98256.72;10600724;28;20042;-78
2023/03/04 04:32:25;;;;;;;2.75;1.30;;;;;;;-2.86;93.14;98258.81;10609620;28;20036;-77
2023/03/04 04:37:27;;;;;;;2.20;1.42;;;;;;;-2.89;93.30;98264.69;10590311;28;20055;-79
2023/03/04 04:42:29;;;;;;;1.00;0.90;;;;;;;-2.86;93.53;98264.97;10606908;28;20046;-78
2023/03/04 04:47:31;;;;;;;2.50;1.60;;;;;;;-2.91;93.21;98256.06;10607897;28;20039;-77
2023/03/04 04:52:38;;;;;;;2.55;1.80;;;;;;;-2.87;94.00;98258.00;10603835;28;20044;-79
2023/03/04 04:57:40;;;;;;;4.47;2.10;;;;;;;-2.83;93.74;98259.09;10582305;28;20051;-78
2023/03/04 05:02:42;;;;;;;3.20;2.08;;;;;;;-2.85;93.97;98255.06;10606695;28;20390;-78
2023/03/04 05:07:44;;;;;;;4.28;2.30;;;;;;;-2.88;94.11;98259.06;10606913;28;20059;-78
2023/03/04 05:12:46;;;;;;;3.88;2.08;;;;;;;-2.85;94.30;98250.50;10611738;27;20058;-79
2023/03/04 05:17:49;;;;;;;1.83;1.38;;;;;;;-2.78;94.45;98248.44;10608860;28;20401;-77
2023/03/04 05:22:51;;;;;;;3.15;1.70;;;;;;;-2.75;93.85;98255.16;10611824;27;20401;-78
2023/03/04 05:27:53;;;;;;;2.58;1.92;;;;;;;-2.72;93.84;98249.28;10601083;28;20047;-77
2023/03/04 05:32:55;;;;;;;3.40;2.22;;;;;;;-2.60;93.61;98267.94;10559940;27;20047;-77
2023/03/04 05:37:58;;;;;;;1.95;1.70;;;;;;;-2.59;94.18;98261.50;10617085;28;20044;-78
2023/03/04 05:43:00;;;;;;;2.58;1.33;;;;;;;-2.56;93.65;98259.13;10607906;28;20066;-78
2023/03/04 05:48:03;;;;;;;4.88;1.30;;;;;;;-2.43;93.77;98265.91;10585932;27;20055;-79
2023/03/04 05:53:06;;;;;;;3.70;1.75;;;;;;;-2.34;93.14;98263.59;10594739;28;20323;-78
2023/03/04 05:58:08;;;;;;;2.13;1.77;;;;;;;-2.33;92.54;98265.22;10591344;28;20055;-77
2023/03/04 06:03:17;;;;;;;4.13;1.50;;;;;;;-2.09;92.96;98265.66;10609113;27;20415;-78
2023/03/04 06:08:19;;;;;;;3.55;1.60;;;;;;;-2.14;92.82;98259.19;10612742;27;20058;-77
2023/03/04 06:13:21;;;;;;;3.63;1.50;;;;;;;-2.12;92.95;98262.44;10591832;27;20039;-78
2023/03/04 06:18:25;;;;;;;4.00;1.58;;;;;;;-2.16;92.72;98266.69;10625378;27;20408;-79
2023/03/04 06:23:28;;;;;;;4.18;1.48;;;;;;;-2.15;92.41;98256.75;10604383;27;20043;-79
2023/03/04 06:28:30;;;;;;;3.33;1.33;;;;;;;-2.10;92.02;98261.34;10590423;28;20063;-79
2023/03/04 06:33:32;;;;;;;1.90;1.50;;;;;;;-2.04;91.59;98271.91;10586879;27;20043;-79
2023/03/04 06:38:35;;;;;;;2.95;1.73;;;;;;;-2.06;91.99;98270.53;10602317;28;20492;-78
2023/03/04 06:43:37;;;;;;;3.30;2.28;;;;;;;-2.09;92.18;98273.72;10616550;28;20050;-79
2023/03/04 06:48:39;;;;;;;4.25;1.70;;;;;;;-2.05;92.73;98272.16;10596768;28;20044;-78
2023/03/04 06:53:41;;;;;;;3.67;1.92;;;;;;;-2.04;92.81;98277.28;10611254;28;20031;-77
2023/03/04 06:58:44;;;;;;;5.15;1.90;;;;;;;-1.99;92.35;98271.94;10585485;28;20043;-79
2023/03/04 07:03:48;;;;;;;4.72;1.88;;;;;;;-1.96;91.92;98286.72;10611260;27;20260;-78
2023/03/04 07:08:50;;;;;;;3.83;1.88;;;;;;;-1.90;91.90;98288.41;10594010;28;20047;-78
2023/03/04 07:13:53;;;;;;;2.92;1.90;;;;;;;-1.87;91.93;98293.25;10598302;27;20057;-78
2023/03/04 07:18:55;;;;;;;3.22;1.77;;;;;;;-1.83;92.03;98284.41;10615840;27;20443;-79
2023/03/04 07:23:57;;;;;;;2.55;1.55;;;;;;;-1.74;91.75;98292.78;10588965;28;20074;-78
2023/03/04 07:29:00;;;;;;;3.92;1.98;;;;;;;-1.64;91.70;98292.88;10611671;27;20032;-79
2023/03/04 07:34:04;;;;;;;3.38;2.00;;;;;;;-1.53;91.31;98301.81;10584566;27;20516;-79
2023/03/04 07:39:07;;;;;;;3.42;1.85;;;;;;;-1.43;91.68;98301.84;10605796;28;20040;-78
2023/03/04 07:44:12;;;;;;;3.00;2.08;;;;;;;-1.37;91.27;98291.97;10575632;28;20145;-79
2023/03/04 07:49:14;;;;;;;2.63;1.67;;;;;;;-1.30;90.95;98293.31;10596825;28;20043;-79
2023/03/04 07:54:18;;;;;;;3.97;1.80;;;;;;;-1.21;90.95;98299.03;10584500;28;20043;-79
2023/03/04 07:59:22;;;;;;;2.20;1.20;;;;;;;-1.09;90.67;98296.91;10615541;28;20044;-80
2023/03/04 08:04:24;;;;;;;4.05;2.30;;;;;;;-0.88;91.01;98302.38;10574230;28;20126;-80
2023/03/04 08:09:26;;;;;;;3.95;1.75;;;;;;;-0.71;89.70;98297.56;10567792;28;20416;-78
2023/03/04 08:14:28;;;;;;;3.28;1.75;;;;;;;-0.64;88.19;98311.63;10567569;28;20048;-79
2023/03/04 08:19:30;;;;;;;1.85;1.52;;;;;;;-0.48;87.11;98302.50;10551548;28;20047;-78
2023/03/04 08:24:32;;;;;;;2.72;1.88;;;;;;;-0.20;86.45;98311.16;10525350;28;20377;-79
2023/03/04 08:29:35;;;;;;;2.85;2.17;;;;;;;0.11;85.52;98310.09;10542018;28;20040;-78
2023/03/04 08:34:38;;;;;;;3.90;1.90;;;;;;;0.48;84.70;98322.47;10558235;28;20055;-78
2023/03/04 08:39:40;;;;;;;6.95;2.08;;;;;;;0.75;84.47;98317.56;10549679;28;20048;-81
2023/03/04 08:44:43;;;;;;;3.20;1.70;;;;;;;0.65;81.69;98317.56;10545809;28;20044;-79
2023/03/04 08:49:46;;;;;;;8.13;2.72;;;;;;;0.68;81.78;98322.41;10588957;28;20039;-79
2023/03/04 08:54:49;;;;;;;4.90;2.00;;;;;;;0.51;82.70;98324.59;10587405;28;20043;-80
2023/03/04 08:59:51;;;;;;;3.72;1.75;;;;;;;0.36;82.65;98322.75;10585352;28;20493;-80
2023/03/04 09:04:54;;;;;;;6.15;2.33;;;;;;;0.45;83.10;98317.63;10571709;28;20050;-78
2023/03/04 09:09:56;;;;;;;3.85;2.55;;;;;;;0.46;83.84;98328.13;10590761;28;20241;-83
2023/03/04 09:14:58;;;;;;;5.28;2.20;;;;;;;0.58;84.08;98327.84;10538590;28;20047;-82
2023/03/04 09:20:08;;;;;;;4.15;2.28;;;;;;;0.82;81.69;98334.25;10568413;28;20040;-85
2023/03/04 09:25:14;;;;;;;4.00;2.15;;;;;;;0.94;81.23;98320.47;10555164;28;20051;-79
2023/03/04 09:30:17;;;;;;;3.25;2.00;;;;;;;0.88;80.55;98311.59;10585982;28;20550;-80
2023/03/04 09:35:20;;;;;;;6.32;2.13;;;;;;;0.60;80.60;98325.69;10567084;28;20452;-80
2023/03/04 09:40:26;;;;;;;3.40;2.47;;;;;;;0.37;80.74;98328.97;10583511;28;20042;-78
2023/03/04 09:45:40;;;;;;;2.72;1.80;;;;;;;0.35;81.27;98331.94;10589033;28;20547;-80
2023/03/04 09:51:15;;;;;;;2.67;1.67;;;;;;;0.26;81.24;98337.06;10560039;28;20032;-79
2023/03/04 09:56:17;;;;;;;4.13;2.08;;;;;;;0.38;81.04;98341.38;10595532;28;20040;-77
2023/03/04 10:01:37;;;;;;;2.08;1.50;;;;;;;0.36;81.59;98338.13;10575047;28;20058;-77
2023/03/04 10:06:41;;;;;;;1.95;1.13;;;;;;;0.30;80.78;98335.44;10559347;28;20415;-78
2023/03/04 10:11:49;;;;;;;1.30;0.80;;;;;;;0.11;80.75;98347.03;10605702;27;20415;-78
2023/03/04 10:16:59;;;;;;;1.48;1.30;;;;;;;0.11;81.18;98352.41;10631014;28;20451;-79
2023/03/04 10:22:14;;;;;;;2.72;1.58;;;;;;;-0.12;80.98;98361.84;10615884;27;20042;-79
2023/03/04 10:27:18;;;;;;;1.67;1.25;;;;;;;-0.17;81.46;98369.94;10590233;28;20050;-79
2023/03/04 10:32:21;;;;;;;2.03;1.10;;;;;;;-0.20;81.95;98375.81;10627837;28;20510;-79
2023/03/04 10:37:23;;;;;;;2.40;1.25;;;;;;;-0.31;81.47;98381.22;10632687;27;20587;-80
2023/03/04 10:42:28;;;;;;;1.27;1.00;;;;;;;-0.33;81.36;98371.78;10603513;27;20035;-81
2023/03/04 10:47:32;;;;;;;3.42;1.38;;;;;;;-0.26;81.64;98377.72;10582883;28;20051;-78
2023/03/04 10:52:38;;;;;;;2.10;1.20;;;;;;;-0.19;81.88;98369.34;10589302;28;20035;-77
2023/03/04 10:57:42;;;;;;;2.13;1.17;;;;;;;-0.04;81.04;98389.06;10600382;28;20031;-79
2023/03/04 11:02:45;;;;;;;0.90;0.68;;;;;;;0.04;80.29;98381.53;10604224;28;20039;-76
2023/03/04 11:07:55;;;;;;;1.98;0.98;;;;;;;0.25;79.54;98381.28;10620531;28;20058;-78
2023/03/04 11:12:58;;;;;;;2.55;0.60;;;;;;;0.32;78.37;98386.41;10583232;27;20039;-78
2023/03/04 11:18:03;;;;;;;1.15;0.98;;;;;;;0.24;78.01;98397.75;10577478;28;20109;-81
2023/03/04 11:23:11;;;;;;;1.13;0.70;;;;;;;0.07;78.46;98398.00;10588937;27;20036;-78
2023/03/04 11:28:21;;;;;;;1.53;0.80;;;;;;;0.07;78.38;98398.00;10615788;28;20032;-77
2023/03/04 11:33:40;;;;;;;1.70;0.90;;;;;;;0.11;78.73;98403.66;10539046;28;20126;-78
2023/03/04 11:38:50;;;;;;;1.10;0.50;;;;;;;0.12;78.52;98392.59;10543019;28;20504;-78
2023/03/04 11:43:52;;;;;;;0.88;0.70;;;;;;;0.15;78.55;98402.84;10596211;28;20051;-77
2023/03/04 11:49:01;;;;;;;1.02;0.90;;;;;;;0.27;78.63;98402.59;10614633;28;20043;-77
2023/03/04 11:54:29;;;;;;;1.52;1.20;;;;;;;0.33;78.18;98398.81;10614524;27;20416;-78
2023/03/04 11:59:34;;;;;;;3.03;1.47;;;;;;;0.26;78.26;98407.19;10606307;28;20051;-78
2023/03/04 12:04:50;;;;;;;1.73;1.20;;;;;;;0.23;78.01;98413.13;10607196;27;20044;-78
2023/03/04 12:10:20;;;;;;;3.08;1.33;;;;;;;0.37;78.16;98413.41;10610390;28;20043;-79
2023/03/04 12:15:28;;;;;;;4.10;1.50;;;;;;;0.39;77.04;98415.81;10602154;27;20496;-78
2023/03/04 12:20:43;;;;;;;4.03;1.45;;;;;;;0.28;77.03;98428.47;10579366;27;20054;-80
2023/03/04 12:26:06;;;;;;;3.45;1.52;;;;;;;0.28;76.46;98426.59;10591028;27;20043;-80
2023/03/04 12:31:30;;;;;;;4.00;1.60;;;;;;;0.07;76.94;98427.66;10593661;28;20035;-78
2023/03/04 12:36:35;;;;;;;1.20;1.10;;;;;;;0.10;77.23;98426.31;10604709;28;20051;-78
2023/03/04 12:42:05;;;;;;;2.35;1.60;;;;;;;0.29;77.24;98430.09;10584335;28;20114;-78
2023/03/04 12:47:42;;;;;;;1.58;1.30;;;;;;;0.37;76.59;98434.19;10607254;28;20044;-79
2023/03/04 12:52:53;;;;;;;2.35;1.20;;;;;;;0.39;76.42;98432.00;10645678;28;20039;-79
2023/03/04 12:57:56;;;;;;;4.65;1.33;;;;;;;0.48;75.84;98441.16;10591314;28;20047;-78
2023/03/04 13:03:16;;;;;;;2.58;1.23;;;;;;;0.37;75.45;98447.66;10612519;28;20044;-79
2023/03/04 13:08:24;;;;;;;2.80;1.50;;;;;;;0.23;76.16;98456.28;10592024;28;20055;-79
2023/03/04 13:13:37;;;;;;;;;;;;;;;0.19;76.41;98452.50;10611800;28;20054;-78
2023/03/04 13:18:39;;;;;;;2.95;1.17;;;;;;;0.17;76.74;98467.28;10608803;28;20404;-79
2023/03/04 13:23:41;;;;;;;1.98;1.40;;;;;;;0.19;76.56;98459.78;10595355;28;20040;-79
2023/03/04 13:28:44;;;;;;;2.33;1.15;;;;;;;0.17;77.04;98470.81;10549778;28;20040;-80
2023/03/04 13:33:54;;;;;;;2.50;1.30;;;;;;;0.18;76.31;98468.94;10606730;28;20503;-78
2023/03/04 13:39:22;;;;;;;1.92;1.15;;;;;;;0.10;76.65;98477.53;10605571;28;20496;-79
2023/03/04 13:44:42;;;;;;;1.17;1.08;;;;;;;0.00;77.04;98481.03;10626084;28;20048;-78
2023/03/04 13:49:45;;;;;;;5.57;1.38;;;;;;;-0.03;77.04;98479.66;10610873;27;20037;-78
2023/03/04 13:54:48;;;;;;;3.92;1.25;;;;;;;-0.01;77.28;98493.66;10627787;27;20117;-80
2023/03/04 13:59:55;;;;;;;2.95;1.80;;;;;;;-0.16;76.69;98501.72;10594813;28;20047;-78
2023/03/04 14:04:59;;;;;;;2.22;1.30;;;;;;;-0.19;76.91;98496.03;10611395;28;20373;-79
2023/03/04 14:10:03;;;;;;;1.48;1.30;;;;;;;-0.28;77.02;98492.25;10596512;28;20056;-80
2023/03/04 14:15:26;;;;;;;1.92;1.35;;;;;;;-0.18;77.06;98489.56;10618614;28;20055;-79
2023/03/04 14:20:30;;;;;;;3.30;1.90;;;;;;;-0.11;76.56;98495.53;10617638;28;20040;-79
2023/03/04 14:25:34;;;;;;;1.45;1.33;;;;;;;-0.08;77.14;98500.41;10650798;27;20047;-77
2023/03/04 14:30:36;;;;;;;1.35;1.08;;;;;;;-0.07;76.87;98510.09;10590376;28;20036;-79
2023/03/04 14:35:48;;;;;;;2.70;1.50;;;;;;;-0.26;76.42;98514.34;10583517;28;20043;-78
2023/03/04 14:40:54;;;;;;;1.77;1.20;;;;;;;-0.36;76.69;98513.22;10613671;28;20050;-78
2023/03/04 14:45:58;;;;;;;1.58;1.27;;;;;;;-0.25;77.15;98515.97;10596729;28;20043;-79
2023/03/04 14:51:01;;;;;;;3.00;1.70;;;;;;;-0.27;77.27;98520.81;10565094;28;20047;-78
2023/03/04 14:56:09;;;;;;;9.60;2.88;;;;;;;-0.38;77.40;98536.09;10603006;27;20055;-81
2023/03/04 15:01:15;;;;;;;10.67;4.37;;;;;;;-0.41;78.23;98539.31;10569386;28;20040;-77
2023/03/04 15:06:20;;;;;;;2.70;1.40;;;;;;;-0.53;79.02;98544.09;10609282;28;20039;-78
2023/03/04 15:11:50;;;;;;;2.95;1.40;;;;;;;-0.76;79.09;98548.81;10592429;28;20042;-78
2023/03/04 15:16:55;;;;;;;7.05;2.85;;;;;;;-0.85;80.19;98550.38;10560762;28;20492;-78
2023/03/04 15:22:06;;;;;;;5.32;1.25;;;;;;;-0.86;80.81;98564.91;10579298;27;20475;-78
2023/03/04 15:27:11;;;;;;;4.47;1.95;;;;;;;-1.00;81.23;98563.72;10601737;28;20047;-79
2023/03/04 15:32:14;;;;;;;3.03;1.20;;;;;;;-1.04;81.53;98571.50;10609417;27;20054;-79
2023/03/04 15:37:21;;;;;;;0.90;0.47;;;;;;;-1.07;82.65;98577.34;10630969;27;20316;-79
2023/03/04 15:42:24;;;;;;;1.07;0.93;;;;;;;-1.07;82.91;98577.34;10557310;28;20045;-79
2023/03/04 15:47:26;;;;;;;1.80;1.00;;;;;;;-1.10;83.25;98582.44;10607885;28;20043;-79
2023/03/04 15:52:28;;;;;;;2.97;1.38;;;;;;;-1.12;83.94;98596.16;10606067;28;20039;-79
2023/03/04 15:57:30;;;;;;;2.88;1.20;;;;;;;-1.17;84.15;98592.63;10581315;28;20035;-79
2023/03/04 16:02:33;;;;;;;0.70;0.70;;;;;;;-1.20;84.44;98595.81;10604372;28;20502;-81
2023/03/04 16:07:36;;;;;;;2.38;1.52;;;;;;;-1.22;84.85;98601.44;10579258;28;20420;-78
2023/03/04 16:12:38;;;;;;;1.38;0.80;;;;;;;-1.15;85.20;98602.06;10564072;28;20036;-80
2023/03/04 16:17:42;;;;;;;0.68;0.68;;;;;;;-1.14;85.93;98608.25;10536008;28;20036;-79
2023/03/04 16:22:46;;;;;;;1.92;0.88;;;;;;;-1.12;85.70;98600.72;10536942;28;20031;-80
2023/03/04 16:27:50;;;;;;;1.95;1.35;;;;;;;-1.16;85.23;98607.69;10540245;28;20059;-77
2023/03/04 16:32:53;;;;;;;2.45;1.40;;;;;;;-1.14;86.02;98610.94;10571381;28;20051;-81
2023/03/04 16:37:57;;;;;;;2.97;1.50;;;;;;;-1.08;85.85;98610.72;10511668;28;20044;-80
2023/03/04 16:42:59;;;;;;;3.50;1.13;;;;;;;-1.13;85.80;98615.25;10517408;28;20040;-80
2023/03/04 16:48:02;;;;;;;3.13;1.65;;;;;;;-1.01;86.26;98608.66;10504224;28;20036;-79
2023/03/04 16:53:04;;;;;;;1.27;0.93;;;;;;;-1.01;85.47;98605.97;10567111;28;20044;-80
2023/03/04 16:58:08;;;;;;;4.72;1.90;;;;;;;-0.95;86.03;98607.63;10550448;28;20501;-81
2023/03/04 17:03:10;;;;;;;6.28;1.48;;;;;;;-0.94;85.57;98609.25;10530688;28;20048;-79
2023/03/04 17:08:13;;;;;;;2.17;1.42;;;;;;;-0.99;85.39;98613.78;10583050;28;20132;-81
2023/03/04 17:13:15;;;;;;;2.78;1.58;;;;;;;-0.98;85.91;98613.53;10591980;27;20046;-81
2023/03/04 17:18:17;;;;;;;3.80;1.80;;;;;;;-1.06;86.02;98611.28;10590069;28;20410;-80
2023/03/04 17:23:19;;;;;;;3.30;0.93;;;;;;;-1.14;86.05;98625.22;10631110;28;20046;-78
2023/03/04 17:28:22;;;;;;;2.97;0.88;;;;;;;-1.21;86.56;98627.31;10595921;28;20050;-81
2023/03/04 17:33:24;;;;;;;1.52;0.95;;;;;;;-1.19;86.87;98621.66;10611132;28;20424;-81
2023/03/04 17:38:26;;;;;;;0.75;0.75;;;;;;;-1.18;86.93;98629.47;10591916;28;20035;-79
2023/03/04 17:43:28;;;;;;;1.80;0.98;;;;;;;-1.14;87.18;98635.97;10612632;28;20058;-80
2023/03/04 17:48:31;;;;;;;2.63;1.02;;;;;;;-1.16;86.88;98631.91;10611372;28;20051;-78
2023/03/04 17:53:33;;;;;;;4.55;1.42;;;;;;;-1.16;86.95;98637.31;10596159;28;20043;-79
2023/03/04 17:58:36;;;;;;;2.58;1.65;;;;;;;-1.04;87.05;98635.25;10584728;28;20035;-79
2023/03/04 18:03:38;;;;;;;2.97;1.00;;;;;;;-1.08;87.09;98634.94;10611538;28;20040;-80
2023/03/04 18:08:40;;;;;;;2.35;1.40;;;;;;;-1.08;87.76;98634.94;10618845;28;20073;-82
2023/03/04 18:13:43;;;;;;;2.20;1.52;;;;;;;-1.00;87.36;98631.81;10585721;28;20035;-80
2023/03/04 18:18:46;;;;;;;4.10;1.60;;;;;;;-0.92;87.60;98639.41;10600831;28;20040;-79
2023/03/04 18:23:48;;;;;;;2.28;1.20;;;;;;;-0.80;87.50;98639.25;10602564;28;20424;-78
2023/03/04 18:28:52;;;;;;;2.38;1.58;;;;;;;-0.82;87.30;98643.28;10603291;28;20049;-80
2023/03/04 18:33:54;;;;;;;2.00;1.15;;;;;;;-0.93;87.09;98637.78;10588332;28;20049;-81
2023/03/04 18:39:04;;;;;;;1.92;1.48;;;;;;;-1.05;87.52;98637.13;10607430;28;20039;-80
2023/03/04 18:44:08;;;;;;;3.85;2.08;;;;;;;-0.91;87.78;98640.22;10610036;28;20415;-79
2023/03/04 18:49:11;;;;;;;4.53;1.75;;;;;;;-0.86;87.81;98636.78;10626151;28;20048;-79
2023/03/04 18:54:14;;;;;;;2.90;2.10;;;;;;;-0.81;87.44;98632.25;10590682;28;20036;-81
2023/03/04 18:59:22;;;;;;;3.20;1.88;;;;;;;-0.55;87.87;98633.25;10573869;28;20044;-79
2023/03/04 19:04:26;;;;;;;3.08;2.13;;;;;;;-0.39;87.40;98637.69;10606302;28;20500;-82
2023/03/04 19:09:28;;;;;;;2.33;1.50;;;;;;;-0.47;86.75;98624.69;10564959;28;20051;-80
2023/03/04 19:14:37;;;;;;;3.35;2.20;;;;;;;-0.55;86.62;98633.25;10588783;28;20035;-79
2023/03/04 19:19:40;;;;;;;5.23;2.10;;;;;;;-0.52;86.69;98631.91;10619026;28;20047;-80
2023/03/04 19:24:42;;;;;;;3.13;2.10;;;;;;;-0.60;86.79;98630.53;10577504;28;20444;-79
2023/03/04 19:29:46;;;;;;;3.60;2.15;;;;;;;-0.56;87.03;98639.72;10564138;28;20039;-80
2023/03/04 19:34:48;;;;;;;3.47;2.03;;;;;;;-0.57;87.02;98638.09;10576501;27;20064;-81
2023/03/04 19:39:54;;;;;;;2.53;1.48;;;;;;;-0.42;87.49;98650.88;10570481;28;20042;-81
2023/03/04 19:44:57;;;;;;;2.70;1.95;;;;;;;-0.53;87.44;98646.47;10572591;28;20084;-81
2023/03/04 19:49:59;;;;;;;2.90;1.90;;;;;;;-0.47;87.75;98662.44;10569275;28;20032;-79
2023/03/04 19:55:02;;;;;;;2.42;2.00;;;;;;;-0.51;87.45;98655.94;10623469;28;20510;-79
2023/03/04 20:00:06;;;;;;;3.22;2.10;;;;;;;-0.65;87.79;98663.63;10570345;28;20540;-80
2023/03/04 20:05:09;;;;;;;2.20;1.60;;;;;;;-0.56;87.84;98655.88;10612673;28;20079;-79
2023/03/04 20:10:11;;;;;;;2.88;1.90;;;;;;;-0.49;87.84;98663.75;10664305;28;20028;-80
2023/03/04 20:15:14;;;;;;;4.05;2.28;;;;;;;-0.60;87.73;98652.06;10600486;28;20454;-80
2023/03/04 20:20:16;;;;;;;2.92;1.75;;;;;;;-0.82;88.04;98654.84;10617013;28;20050;-81
2023/03/04 20:25:18;;;;;;;4.90;3.05;;;;;;;-0.82;88.18;98648.66;10577619;27;20039;-82
2023/03/04 20:30:20;;;;;;;3.17;2.65;;;;;;;-0.61;87.95;98658.53;10579585;28;20400;-81
2023/03/04 20:35:23;;;;;;;6.15;2.40;;;;;;;-0.49;88.16;98658.38;10591172;28;20031;-81
2023/03/04 20:40:25;;;;;;;3.38;2.50;;;;;;;-0.46;87.57;98658.66;10575389;28;20503;-82
2023/03/04 20:45:27;;;;;;;5.47;2.83;;;;;;;-0.32;87.80;98659.84;10577968;28;20061;-83
2023/03/04 20:50:29;;;;;;;3.63;2.40;;;;;;;-0.29;87.24;98658.50;10592196;28;20050;-84
2023/03/04 20:55:31;;;;;;;4.68;2.80;;;;;;;-0.17;87.18;98656.44;10607845;28;20035;-82
2023/03/04 21:00:37;;;;;;;6.85;3.17;;;;;;;-0.41;87.10;98664.06;10584139;28;20040;-83
2023/03/04 21:05:39;;;;;;;3.97;3.13;;;;;;;-0.42;87.14;98665.16;10607451;28;20043;-84
2023/03/04 21:10:49;;;;;;;3.72;2.90;;;;;;;-0.50;87.32;98668.34;10574174;28;20039;-81
2023/03/04 21:15:52;;;;;;;5.03;2.33;;;;;;;-0.62;88.12;98673.88;10589103;28;20035;-81
2023/03/04 21:20:58;;;;;;;2.40;2.00;;;;;;;-0.78;87.82;98669.44;10624073;28;20515;-79
2023/03/04 21:26:00;;;;;;;2.78;1.90;;;;;;;-0.65;88.53;98670.91;10602269;28;20043;-80
2023/03/04 21:31:03;;;;;;;4.43;2.13;;;;;;;-0.42;88.35;98675.13;10607966;28;20050;-87
2023/03/04 21:36:06;;;;;;;2.80;2.08;;;;;;;-0.41;88.94;98674.03;10590433;28;20039;-82
2023/03/04 21:41:11;;;;;;;3.38;2.42;;;;;;;-0.47;88.86;98680.47;10557131;28;20047;-81
2023/03/04 21:46:15;;;;;;;2.97;2.30;;;;;;;-0.26;88.49;98678.72;10586717;28;20053;-81
2023/03/04 21:51:25;;;;;;;3.25;1.92;;;;;;;-0.38;88.20;98678.91;10622767;28;20428;-79
2023/03/04 21:56:28;;;;;;;3.03;2.03;;;;;;;-0.45;88.79;98681.84;10576272;28;20036;-81
2023/03/04 22:01:31;;;;;;;3.20;1.98;;;;;;;-0.58;88.92;98687.66;10606677;28;20323;-82
2023/03/04 22:06:33;;;;;;;3.13;1.55;;;;;;;-0.72;88.88;98691.81;10626922;27;20035;-80
2023/03/04 22:11:36;;;;;;;3.28;1.50;;;;;;;-0.84;89.00;98688.50;10601519;28;20042;-80
2023/03/04 22:16:42;;;;;;;1.17;1.08;;;;;;;-0.89;89.07;98693.81;10613119;28;20046;-81
2023/03/04 22:21:48;;;;;;;2.38;1.30;;;;;;;-1.04;89.09;98699.84;10624698;28;20040;-79
2023/03/04 22:26:55;;;;;;;1.13;1.02;;;;;;;-1.03;89.12;98709.56;10626478;28;20044;-81
2023/03/04 22:31:57;;;;;;;1.60;0.95;;;;;;;-0.97;89.00;98701.28;10613273;28;20050;-82
2023/03/04 22:37:00;;;;;;;1.27;1.00;;;;;;;-0.99;88.81;98689.97;10625769;28;20051;-83
2023/03/04 22:42:02;;;;;;;1.10;0.90;;;;;;;-0.97;88.44;98703.97;10591986;28;20043;-81
2023/03/04 22:47:04;;;;;;;1.48;1.08;;;;;;;-0.82;88.28;98695.25;10624219;28;20040;-79
2023/03/04 22:52:32;;;;;;;1.37;1.13;;;;;;;-0.99;88.50;98698.03;10608189;28;20028;-79
2023/03/04 22:57:38;;;;;;;0.90;0.80;;;;;;;-1.18;88.68;98704.03;10614853;28;20040;-79
2023/03/04 23:02:40;;;;;;;1.75;1.02;;;;;;;-1.12;88.59;98703.81;10606827;28;20040;-80
2023/03/04 23:07:42;;;;;;;1.55;0.88;;;;;;;-1.04;88.77;98698.00;10579830;28;20055;-78
2023/03/04 23:12:45;;;;;;;2.08;0.88;;;;;;;-1.02;88.96;98703.94;10607345;28;20047;-79
2023/03/04 23:17:47;;;;;;;0.90;0.80;;;;;;;-1.11;88.76;98708.13;10614160;28;20048;-80
2023/03/04 23:22:49;;;;;;;2.10;0.80;;;;;;;-1.11;88.64;98704.63;10608573;28;20035;-79
2023/03/04 23:27:52;;;;;;;1.50;0.90;;;;;;;-1.12;88.43;98700.31;10609993;28;20164;-79
2023/03/04 23:32:54;;;;;;;0.70;0.70;;;;;;;-1.25;88.16;98696.94;10598387;28;20032;-79
2023/03/04 23:37:57;;;;;;;0.63;0.63;;;;;;;-1.35;88.69;98704.09;10596814;28;20044;-78
2023/03/04 23:42:59;;;;;;;1.05;0.95;;;;;;;-1.47;89.09;98703.41;10600714;28;20456;-79